Hlavní strana
METAR-TAF:

METAR-TAF

Letiště :

Benslimane, Maroko

zeměpisná šířka: 33-39-20N, zeměpisná délka: 007-13-17W, výška: 191 m

Aktuální stav počasí

Zpráva byla vytvořena před 13 minutami, v 15:00 UTC
Severoseverozápadní vítr 7 kt, proměnlivý mezi západoseverozápadním a severním
Teplota 16°C
Vlhkost vzduchu 82%
Tlak 1012 hPa
Viditelnost 10 km a více
Polojasno ve výšce 2000 ft
Skoro jasno ve výšce 2300 ft, Vertikální cumulus.
Oblačno až skoro zataženo ve výšce 8000 ft

METAR: GMMB 281500Z 34007KT 300V010 9999 SCT020 FEW023TCU BKN080 16/13 Q1012 NOSIG

Čas: 16:13 (15:13 UTC)


TAF: chybějící

Stav a předpovědi počasí z více než 4 000 letišť (zprávy METAR a TAF).

Červené a žluté tečky na mapě představují dostupné meteorologické stanice.

Když kurzor umístíte na tečku, zobrazí se název stanice.

Pak kliknutím zobrazíte stav a předpověď počasí.

Chcete-li změnit mapu, kliknutím na zelené tlačítko se znaménkem +mapu přiblížíte, kliknutím na zelené tlačítko se znaménkem – mapu oddálíte a kliknutím na zelené šipky přejdete na sousední mapy.


METAR-TAF: